CheckWX is a tool to help pilots better visualize weather data.  It is not intended as a substitute for an official pre-flight weather briefing.

05:25:35 UTC

RPLC TAF
Clark International Airport
Angeles City, Philippines
TAF RPLC 072300Z 0800/0906 03005KT 8000 SCT020 BKN300 TX31/0806Z TN23/0822Z TEMPO 0800/0806 08010KT SCT020 BKN100

Dec-8@
00:00 UTC

Dec-8 @ 00:00 UTC

Dec-9@
06:00 UTC

Dec-9 @ 06:00 UTC

TAF RPLC 072300Z 0800/0906 03005KT 8000 SCT020 BKN300 TX31/0806Z TN23/0822Z
Wind
  • 030° at 5 KTS
Cloud Levels
  • Scattered at 2,000' AGL
  • Broken at 30,000' AGL

Dec-8@
00:00 UTC

Dec-8 @ 00:00 UTC

Dec-8@
06:00 UTC

Dec-8 @ 06:00 UTC

TEMPO 0800/0806 08010KT SCT020 BKN100

Temporary

Temporary Changes expected for less than half the time period

Wind
  • 080° at 10 KTS
Cloud Levels
  • Scattered at 2,000' AGL
  • Broken at 10,000' AGL